Pagrindinis puslapis
METAR-TAF:

METAR-TAF

Oro uostai :

Granada, Ispanija

platuma: 37-11N, ilguma: 003-47W, Aukštis: 567 m

Dabartinis oras

Ataskaita buvo paskelbta 19 minutes, ne 02:30 UTC
Vėjas 2 kt nuo kintamojo kryptimis
Temperatūra 12°C
Drėgmė 88%
Slėgis 1024 hPa
Matomumas 10 km arba daugiau
nėra debesų žemiau 1500 m ir nėra kamuolinių lietaus debesų

METAR: LEGR 080230Z AUTO VRB02KT CAVOK 12/10 Q1024

Laikas: 04:49 (02:49 UTC)

Prognozė

Ataskaita buvo paskelbta 49 minutes, ne 02:00 UTC
Prognozė galioja nuo 08 metu 03 UTC su 09 metu 03 UTC
Vėjas 6 kt iš Pietų/Pietryčių
Matomumas 10 km arba daugiau
Išsisklaidę debesys ne aukštis 5000 ft

TAF: LEGR 080200Z 0803/0903 16006KT 9999 SCT050 TX23/0815Z TN09/0807Z

Orai ataskaitas ir orų prognozės (METAR, TAF).

turimą stotys yra geltonos ir raudonos taškus žemėlapyje.

Perkelti pele per norėdami pamatyti stoties vardą.

Tada spustelėkite, norėdami matyti oro stebėjimo ir prognozės.

Norėdami pakeisti žemėlapį: spustelėkite ant žalios mygtukų su juodo kryžiaus žemyn,; žalią mygtuką su brūkšneliu, jei norite nutolinti; arba žalių rodyklių gretimoms žemėlapius.


METAR-TAF: